Time;durP1;ratioP1;P1;durP2;ratioP2;P2;SDS_P1;SDS_P2;PMS_P1;PMS_P2;Temp;Humidity;BMP_temperature;BMP_pressure;BME280_temperature;BME280_humidity;BME280_pressure;Samples;Min_cycle;Max_cycle;Signal;HPM_P1;HPM_P2
2022/05/01 00:01:59;;;;;;;10.73;6.53;;;10.10;99.90;;;;;;5035980;28;20174;-77
2022/05/01 00:04:25;;;;;;;9.40;6.70;;;10.10;99.90;;;;;;5054479;28;20257;-78
2022/05/01 00:06:51;;;;;;;9.43;6.53;;;10.10;99.90;;;;;;5054256;28;20218;-78
2022/05/01 00:09:16;;;;;;;12.77;6.80;;;10.10;99.90;;;;;;5036271;28;20653;-77
2022/05/01 00:11:42;;;;;;;10.17;7.03;;;10.10;1.00;;;;;;5035818;28;20171;-77
2022/05/01 00:14:08;;;;;;;8.43;6.80;;;10.10;99.90;;;;;;5054287;28;20638;-78
2022/05/01 00:16:33;;;;;;;9.43;6.37;;;10.10;1.00;;;;;;5054337;28;20178;-78
2022/05/01 00:18:59;;;;;;;9.43;6.90;;;10.00;1.00;;;;;;5035762;28;20175;-78
2022/05/01 00:21:25;;;;;;;8.47;6.47;;;10.00;99.90;;;;;;5036083;28;20175;-77
2022/05/01 00:23:50;;;;;;;9.80;7.17;;;10.10;1.00;;;;;;5037220;28;20293;-78
2022/05/01 00:26:16;;;;;;;8.70;6.43;;;10.00;1.00;;;;;;5036780;28;20199;-77
2022/05/01 00:28:42;;;;;;;9.03;5.97;;;10.00;1.00;;;;;;5037132;28;20521;-78
2022/05/01 00:31:08;;;;;;;6.17;5.03;;;10.00;1.00;;;;;;5036684;28;20229;-78
2022/05/01 00:36:28;;;;;;;7.07;5.37;;;10.00;99.90;;;;;;5060264;28;20272;-79
2022/05/01 00:39:01;;;;;;;8.37;6.03;;;10.00;1.00;;;;;;5058716;28;20155;-76
2022/05/01 00:41:28;;;;;;;6.47;5.60;;;10.00;1.00;;;;;;5060795;28;20160;-79
2022/05/01 00:44:08;;;;;;;9.47;6.50;;;10.00;1.00;;;;;;5062623;28;20175;-79
2022/05/01 00:46:45;;;;;;;8.00;6.23;;;10.00;1.00;;;;;;5058095;28;20184;-76
2022/05/01 00:49:16;;;;;;;9.77;6.33;;;10.00;1.00;;;;;;5039209;28;20163;-76
2022/05/01 00:51:46;;;;;;;13.63;6.60;;;9.90;99.90;;;;;;5039478;28;20167;-79
2022/05/01 00:54:15;;;;;;;9.50;6.90;;;9.90;1.00;;;;;;5059979;28;20237;-77
2022/05/01 00:56:43;;;;;;;12.40;6.50;;;9.90;1.00;;;;;;5039126;28;20249;-76
2022/05/01 00:59:10;;;;;;;8.40;6.80;;;9.90;99.90;;;;;;5056992;28;20194;-79
2022/05/01 01:01:36;;;;;;;10.00;7.17;;;9.90;1.00;;;;;;5057634;28;20182;-76
2022/05/01 01:04:02;;;;;;;9.37;6.83;;;9.90;1.00;;;;;;5056976;28;20172;-76
2022/05/01 01:06:29;;;;;;;8.73;7.00;;;9.90;14.90;;;;;;5038679;28;20274;-77
2022/05/01 01:08:55;;;;;;;8.77;7.47;;;9.80;99.90;;;;;;5068130;28;20262;-76
2022/05/01 01:11:21;;;;;;;12.50;6.83;;;9.80;1.00;;;;;;5077159;28;20152;-76
2022/05/01 01:13:47;;;;;;;7.53;6.67;;;9.80;1.00;;;;;;5052280;28;20262;-77
2022/05/01 01:16:13;;;;;;;11.93;6.77;;;9.80;99.90;;;;;;5060535;28;20207;-77
2022/05/01 01:18:39;;;;;;;7.93;6.13;;;9.80;27.30;;;;;;5042254;28;20182;-77
2022/05/01 01:21:10;;;;;;;7.33;5.63;;;9.80;99.90;;;;;;5041914;28;20529;-78
2022/05/01 01:23:37;;;;;;;7.17;6.30;;;9.90;1.00;;;;;;5040260;28;20180;-78
2022/05/01 01:26:04;;;;;;;9.83;7.50;;;9.80;99.90;;;;;;5059614;28;20219;-76
2022/05/01 01:28:33;;;;;;;9.57;6.27;;;9.80;1.00;;;;;;5060320;28;20175;-78
2022/05/01 01:33:48;;;;;;;10.07;7.63;;;9.80;99.90;;;;;;5059347;28;20240;-78
2022/05/01 01:36:15;;;;;;;9.23;7.00;;;9.80;1.00;;;;;;5059606;28;20354;-78
2022/05/01 01:38:40;;;;;;;10.87;6.13;;;9.80;1.00;;;;;;5059830;28;20172;-78
2022/05/01 01:41:11;;;;;;;10.70;6.93;;;9.80;3.00;;;;;;5059946;28;20183;-78
2022/05/01 01:43:38;;;;;;;8.33;6.50;;;9.80;99.90;;;;;;5041763;28;20578;-77
2022/05/01 01:46:03;;;;;;;7.80;6.47;;;9.80;1.00;;;;;;5060082;28;20715;-77
2022/05/01 01:48:29;;;;;;;10.90;6.50;;;9.80;99.90;;;;;;5060942;28;20172;-78
2022/05/01 01:51:02;;;;;;;8.63;6.67;;;9.80;99.90;;;;;;5041928;28;20560;-77
2022/05/01 01:53:29;;;;;;;10.20;6.40;;;9.70;99.90;;;;;;5060616;28;20170;-78
2022/05/01 01:55:57;;;;;;;9.80;6.50;;;9.70;99.90;;;;;;5059538;28;20195;-78
2022/05/01 01:58:23;;;;;;;9.47;7.20;;;9.70;99.90;;;;;;5041213;28;20176;-78
2022/05/01 02:00:49;;;;;;;8.93;6.60;;;9.70;1.00;;;;;;5040866;28;20233;-78
2022/05/01 02:03:15;;;;;;;8.57;6.23;;;9.70;1.00;;;;;;5041017;28;20179;-77
2022/05/01 02:05:41;;;;;;;8.57;6.47;;;9.70;60.70;;;;;;5058963;28;20222;-78
2022/05/01 02:08:07;;;;;;;9.17;6.93;;;9.70;99.90;;;;;;5059584;28;20171;-78
2022/05/01 02:10:33;;;;;;;10.37;6.93;;;9.70;1.00;;;;;;5039153;28;20180;-78
2022/05/01 02:13:01;;;;;;;11.20;6.93;;;9.60;99.90;;;;;;5059379;28;20266;-78
2022/05/01 02:15:33;;;;;;;14.27;7.23;;;9.60;99.90;;;;;;5056892;28;20673;-76
2022/05/01 02:18:00;;;;;;;8.47;7.17;;;9.60;99.90;;;;;;5059673;28;20159;-78
2022/05/01 02:20:26;;;;;;;13.10;8.60;;;9.60;99.90;;;;;;5040706;28;20172;-78
2022/05/01 02:22:55;;;;;;;11.30;7.93;;;9.60;98.10;;;;;;5059599;28;20247;-78
2022/05/01 02:25:21;;;;;;;11.23;7.53;;;9.60;1.00;;;;;;5059864;28;20593;-78
2022/05/01 02:27:47;;;;;;;11.40;6.80;;;9.60;99.90;;;;;;5041247;28;20167;-78
2022/05/01 02:30:13;;;;;;;14.77;7.50;;;9.60;99.90;;;;;;5042315;28;20179;-78
2022/05/01 02:32:40;;;;;;;13.80;7.97;;;9.60;99.90;;;;;;5042254;28;20179;-78
2022/05/01 02:35:07;;;;;;;10.93;7.83;;;9.50;1.00;;;;;;5040051;28;20188;-78
2022/05/01 02:37:32;;;;;;;9.00;7.83;;;9.50;1.00;;;;;;5059265;28;20203;-77
2022/05/01 02:39:58;;;;;;;12.50;7.97;;;9.50;1.00;;;;;;5059753;28;20172;-78
2022/05/01 02:42:24;;;;;;;11.03;8.17;;;9.50;1.00;;;;;;5056337;28;20262;-76
2022/05/01 02:44:49;;;;;;;8.63;7.70;;;9.50;1.00;;;;;;5058073;28;20184;-78
2022/05/01 02:47:15;;;;;;;9.13;8.00;;;9.40;1.00;;;;;;5058451;28;20171;-78
2022/05/01 02:49:42;;;;;;;13.27;8.13;;;9.40;1.00;;;;;;5058545;28;20182;-77
2022/05/01 02:52:08;;;;;;;9.50;7.60;;;9.40;1.00;;;;;;5039969;28;20720;-78
2022/05/01 02:54:34;;;;;;;13.80;7.77;;;9.40;51.20;;;;;;5057898;28;20195;-77
2022/05/01 02:57:00;;;;;;;12.27;8.40;;;9.30;97.90;;;;;;5058129;28;20657;-78
2022/05/01 02:59:25;;;;;;;9.57;7.97;;;9.30;99.90;;;;;;5059017;28;20175;-78
2022/05/01 03:01:51;;;;;;;10.37;7.03;;;9.30;99.90;;;;;;5058675;28;20263;-77
2022/05/01 03:04:16;;;;;;;11.00;7.73;;;9.30;99.90;;;;;;5040455;28;20262;-78
2022/05/01 03:06:42;;;;;;;13.57;7.67;;;9.20;99.90;;;;;;5040384;28;20286;-78
2022/05/01 03:09:08;;;;;;;9.43;8.43;;;9.20;99.90;;;;;;5056366;28;20171;-78
2022/05/01 03:11:36;;;;;;;10.00;8.43;;;9.20;99.90;;;;;;5056858;28;20175;-78
2022/05/01 03:14:03;;;;;;;10.90;8.23;;;9.20;99.90;;;;;;5059348;28;20172;-77
2022/05/01 03:16:29;;;;;;;9.03;7.93;;;9.10;99.90;;;;;;5058669;28;20198;-78
2022/05/01 03:24:23;;;;;;;10.77;8.50;;;9.00;99.90;;;;;;5059851;28;20203;-77
2022/05/01 03:26:48;;;;;;;9.40;8.40;;;9.00;99.90;;;;;;5041421;28;20200;-78
2022/05/01 03:29:15;;;;;;;11.67;8.87;;;8.90;99.90;;;;;;5059204;28;20182;-78
2022/05/01 03:31:40;;;;;;;11.93;9.13;;;8.90;99.90;;;;;;5040013;28;20190;-78
2022/05/01 03:34:06;;;;;;;13.90;8.50;;;8.80;99.90;;;;;;5041128;28;20234;-78
2022/05/01 03:36:32;;;;;;;16.27;9.73;;;8.80;99.90;;;;;;5059315;28;20171;-78
2022/05/01 03:38:59;;;;;;;10.03;8.53;;;8.80;99.90;;;;;;5058890;28;20171;-78
2022/05/01 03:41:26;;;;;;;10.50;9.00;;;8.70;99.90;;;;;;5059573;28;20176;-78
2022/05/01 03:43:51;;;;;;;14.43;9.30;;;8.60;99.90;;;;;;5059329;28;20167;-78
2022/05/01 03:46:20;;;;;;;12.60;9.37;;;8.60;99.90;;;;;;5040169;28;20214;-79
2022/05/01 03:48:46;;;;;;;13.80;9.13;;;8.50;99.90;;;;;;5054736;28;20163;-76
2022/05/01 03:51:11;;;;;;;12.40;10.03;;;8.40;99.90;;;;;;5053987;28;20217;-76
2022/05/01 03:53:37;;;;;;;11.93;9.23;;;8.30;99.90;;;;;;5054356;28;20174;-77
2022/05/01 03:56:03;;;;;;;11.90;9.30;;;8.30;99.90;;;;;;5035493;28;20561;-75
2022/05/01 03:58:29;;;;;;;14.23;9.40;;;8.20;99.90;;;;;;5053591;28;20176;-77
2022/05/01 04:00:55;;;;;;;11.93;9.03;;;8.20;99.90;;;;;;5053765;28;20176;-77
2022/05/01 04:03:21;;;;;;;13.67;9.57;;;8.10;99.90;;;;;;5035700;28;20285;-77
2022/05/01 04:05:46;;;;;;;9.93;8.90;;;8.10;99.90;;;;;;5035273;28;20281;-77
2022/05/01 04:08:12;;;;;;;12.53;9.63;;;8.00;99.90;;;;;;5052870;28;20196;-77
2022/05/01 04:10:41;;;;;;;12.07;9.70;;;8.00;99.90;;;;;;5035743;28;20698;-77
2022/05/01 04:13:07;;;;;;;15.30;10.43;;;8.00;99.90;;;;;;5047183;28;20183;-77
2022/05/01 04:15:33;;;;;;;10.53;9.43;;;7.90;99.90;;;;;;5058337;28;20229;-76
2022/05/01 04:18:02;;;;;;;13.20;9.47;;;7.80;99.90;;;;;;5049730;28;20211;-76
2022/05/01 04:20:28;;;;;;;10.03;8.03;;;7.80;99.90;;;;;;5053064;28;20661;-76
2022/05/01 04:22:54;;;;;;;14.10;9.83;;;7.80;99.90;;;;;;5035166;28;20193;-76
2022/05/01 04:25:22;;;;;;;10.20;8.57;;;7.80;99.90;;;;;;5053181;28;20199;-75
2022/05/01 04:27:51;;;;;;;12.03;9.37;;;7.70;99.90;;;;;;5035054;28;20182;-76
2022/05/01 04:30:17;;;;;;;10.73;8.70;;;7.70;99.90;;;;;;5053002;28;20172;-76
2022/05/01 04:32:54;;;;;;;12.13;9.73;;;7.70;99.90;;;;;;5052953;28;20190;-74
2022/05/01 04:35:25;;;;;;;13.03;10.00;;;7.60;99.90;;;;;;5052886;28;20195;-76
2022/05/01 04:37:51;;;;;;;10.70;9.40;;;7.60;99.90;;;;;;5035098;28;20188;-77
2022/05/01 04:40:17;;;;;;;13.13;10.23;;;7.50;99.90;;;;;;5052931;28;20179;-76
2022/05/01 04:42:43;;;;;;;12.77;10.03;;;7.50;99.90;;;;;;5052895;28;20182;-75
2022/05/01 04:45:11;;;;;;;12.17;9.40;;;7.50;99.90;;;;;;5034975;28;20596;-76
2022/05/01 04:47:36;;;;;;;11.23;9.67;;;7.60;99.90;;;;;;5035038;28;20596;-76
2022/05/01 04:50:02;;;;;;;11.47;8.67;;;7.60;99.90;;;;;;5052871;28;20179;-77
2022/05/01 04:52:28;;;;;;;12.33;9.27;;;7.60;99.90;;;;;;5052781;28;20214;-77
2022/05/01 04:54:53;;;;;;;11.57;9.67;;;7.60;99.90;;;;;;5034719;28;20282;-76
2022/05/01 04:57:19;;;;;;;11.70;9.10;;;7.60;99.90;;;;;;5052958;28;20655;-76
2022/05/01 04:59:44;;;;;;;14.70;9.27;;;7.70;99.90;;;;;;5034781;28;20176;-76
2022/05/01 05:02:10;;;;;;;11.67;9.87;;;7.70;99.90;;;;;;5052527;28;20172;-77
2022/05/01 05:04:36;;;;;;;12.43;9.53;;;7.70;99.90;;;;;;5052929;28;20211;-76
2022/05/01 05:07:02;;;;;;;12.13;9.93;;;7.70;99.90;;;;;;5052661;28;20203;-77
2022/05/01 05:12:11;;;;;;;12.33;9.77;;;7.80;99.90;;;;;;5052698;28;20251;-76
2022/05/01 05:17:09;;;;;;;14.37;10.27;;;7.90;99.90;;;;;;5054207;28;20228;-76
2022/05/01 05:19:36;;;;;;;15.70;9.87;;;8.00;99.90;;;;;;5040568;28;20182;-76
2022/05/01 05:22:01;;;;;;;14.03;9.57;;;8.00;99.90;;;;;;5040987;28;20175;-75
2022/05/01 05:24:28;;;;;;;12.37;9.93;;;8.00;99.90;;;;;;5040980;28;20175;-74
2022/05/01 05:26:54;;;;;;;12.77;9.43;;;8.10;99.90;;;;;;5041728;28;20199;-74
2022/05/01 05:29:19;;;;;;;14.90;10.50;;;8.10;99.90;;;;;;5059182;28;20186;-74
2022/05/01 05:31:45;;;;;;;11.20;10.00;;;8.20;99.90;;;;;;5041683;28;20179;-73
2022/05/01 05:34:10;;;;;;;11.53;9.63;;;8.30;99.90;;;;;;5041978;28;20176;-74
2022/05/01 05:36:36;;;;;;;12.90;10.00;;;8.30;99.90;;;;;;5059782;28;20198;-74
2022/05/01 05:39:01;;;;;;;14.87;10.07;;;8.40;99.90;;;;;;5041964;28;20700;-74
2022/05/01 05:41:27;;;;;;;12.27;10.63;;;8.40;99.90;;;;;;5059299;28;20198;-73
2022/05/01 05:43:52;;;;;;;15.40;9.70;;;8.50;99.90;;;;;;5041631;28;20167;-73
2022/05/01 05:46:18;;;;;;;12.67;9.83;;;8.60;99.90;;;;;;5057456;28;20203;-73
2022/05/01 05:48:43;;;;;;;15.80;9.43;;;8.60;99.90;;;;;;5056739;28;20179;-74
2022/05/01 05:51:09;;;;;;;12.23;10.93;;;8.70;99.90;;;;;;5058133;28;20237;-73
2022/05/01 05:53:34;;;;;;;15.43;10.63;;;8.80;99.90;;;;;;5040286;28;20587;-74
2022/05/01 05:56:00;;;;;;;21.17;12.57;;;8.90;99.90;;;;;;5039856;28;20218;-73
2022/05/01 05:58:26;;;;;;;15.80;11.63;;;9.00;99.90;;;;;;5058745;28;20174;-73
2022/05/01 06:00:51;;;;;;;14.83;11.50;;;9.10;99.90;;;;;;5058365;28;20601;-74
2022/05/01 06:03:19;;;;;;;17.10;11.80;;;9.10;99.90;;;;;;5058128;28;20176;-73
2022/05/01 06:05:45;;;;;;;15.37;11.13;;;9.10;99.90;;;;;;5058175;28;20191;-74
2022/05/01 06:08:11;;;;;;;15.73;11.77;;;9.20;99.90;;;;;;5040579;28;20198;-74
2022/05/01 06:10:38;;;;;;;13.80;10.93;;;9.20;99.90;;;;;;5058792;28;20626;-73
2022/05/01 06:13:04;;;;;;;18.00;11.57;;;9.20;99.90;;;;;;5057896;28;20171;-74
2022/05/01 06:15:29;;;;;;;12.23;10.57;;;9.30;99.90;;;;;;5039222;28;20309;-74
2022/05/01 06:17:55;;;;;;;11.30;9.37;;;9.30;99.90;;;;;;5058085;28;20233;-73
2022/05/01 06:20:21;;;;;;;11.80;9.67;;;9.40;55.20;;;;;;5057728;28;20172;-75
2022/05/01 06:22:50;;;;;;;14.77;9.73;;;9.40;99.90;;;;;;5057744;28;20225;-74
2022/05/01 06:25:16;;;;;;;12.37;9.50;;;9.50;1.00;;;;;;5055121;28;20573;-74
2022/05/01 06:27:41;;;;;;;11.33;9.47;;;9.60;99.90;;;;;;5056995;28;20172;-74
2022/05/01 06:30:10;;;;;;;12.43;9.93;;;9.60;99.90;;;;;;5055828;28;20634;-74
2022/05/01 06:32:35;;;;;;;14.50;10.77;;;9.70;99.90;;;;;;5054811;28;20537;-74
2022/05/01 06:35:03;;;;;;;11.43;9.70;;;9.80;99.90;;;;;;5038097;28;20199;-74
2022/05/01 06:37:29;;;;;;;13.70;9.73;;;9.90;1.00;;;;;;5057134;28;20540;-74
2022/05/01 06:39:54;;;;;;;10.40;8.93;;;10.00;99.90;;;;;;5057130;28;20179;-73
2022/05/01 06:42:20;;;;;;;13.50;8.97;;;10.10;99.90;;;;;;5056443;28;20171;-73
2022/05/01 06:44:46;;;;;;;10.63;8.13;;;10.10;99.90;;;;;;5056213;28;20638;-74
2022/05/01 06:47:13;;;;;;;10.80;8.50;;;10.20;61.10;;;;;;5056230;28;20199;-73
2022/05/01 06:49:38;;;;;;;11.60;8.20;;;10.30;45.00;;;;;;5057531;28;20164;-73
2022/05/01 06:52:04;;;;;;;10.50;7.83;;;10.30;99.90;;;;;;5055736;28;20264;-73
2022/05/01 06:54:30;;;;;;;9.13;8.07;;;10.40;99.90;;;;;;5056076;28;20187;-74
2022/05/01 06:56:55;;;;;;;9.20;7.57;;;10.50;99.90;;;;;;5057445;28;20199;-74
2022/05/01 06:59:21;;;;;;;10.53;8.60;;;10.60;1.00;;;;;;5057095;28;20172;-76
2022/05/01 07:01:47;;;;;;;11.23;8.10;;;10.60;1.00;;;;;;5057598;28;20687;-73
2022/05/01 07:04:13;;;;;;;9.50;7.63;;;10.70;99.90;;;;;;5056021;28;20262;-75
2022/05/01 07:06:40;;;;;;;9.23;7.60;;;10.80;99.90;;;;;;5056876;28;20200;-74
2022/05/01 07:09:06;;;;;;;9.63;7.50;;;10.80;1.00;;;;;;5055900;28;20176;-73
2022/05/01 07:11:32;;;;;;;9.93;7.73;;;10.90;1.00;;;;;;5057256;28;20225;-73
2022/05/01 07:13:57;;;;;;;8.70;6.93;;;11.00;1.00;;;;;;5055756;28;20172;-73
2022/05/01 07:16:23;;;;;;;12.00;7.10;;;11.00;99.90;;;;;;5020618;28;1033616;-76
2022/05/01 07:18:48;;;;;;;11.13;7.30;;;11.00;99.90;;;;;;5057858;28;20194;-74
2022/05/01 07:21:14;;;;;;;11.40;7.67;;;11.20;1.00;;;;;;5057021;28;20202;-76
2022/05/01 07:23:39;;;;;;;9.93;7.27;;;11.20;1.00;;;;;;5056572;28;20214;-74
2022/05/01 07:26:05;;;;;;;9.53;6.90;;;11.30;1.00;;;;;;5058037;28;20337;-74
2022/05/01 07:28:32;;;;;;;8.60;7.07;;;11.40;1.00;;;;;;5057420;28;20171;-74
2022/05/01 07:30:59;;;;;;;12.30;7.33;;;11.40;1.00;;;;;;5057026;28;20555;-74
2022/05/01 07:33:25;;;;;;;10.00;7.70;;;11.50;1.00;;;;;;5056580;28;20187;-74
2022/05/01 07:35:51;;;;;;;8.63;6.57;;;11.50;99.90;;;;;;5057318;28;20200;-74
2022/05/01 07:38:17;;;;;;;11.03;6.83;;;11.60;99.90;;;;;;5057228;28;20184;-74
2022/05/01 07:40:43;;;;;;;8.13;6.80;;;11.70;99.90;;;;;;5056058;28;20229;-74
2022/05/01 07:43:09;;;;;;;8.37;7.00;;;11.70;1.00;;;;;;5057956;28;20176;-74
2022/05/01 07:45:35;;;;;;;9.20;6.70;;;11.80;99.90;;;;;;5057200;28;20210;-74
2022/05/01 07:48:00;;;;;;;10.73;6.37;;;11.90;99.90;;;;;;5056972;28;20171;-75
2022/05/01 07:50:27;;;;;;;7.70;6.60;;;12.00;99.90;;;;;;5058616;28;20167;-76
2022/05/01 07:52:52;;;;;;;9.33;6.23;;;11.90;99.90;;;;;;5056638;28;20262;-74
2022/05/01 07:55:18;;;;;;;10.47;6.53;;;12.00;99.90;;;;;;5055897;28;20286;-74
2022/05/01 07:57:43;;;;;;;7.37;6.10;;;12.10;99.90;;;;;;5058344;28;20617;-74
2022/05/01 08:00:10;;;;;;;8.23;6.40;;;12.10;99.90;;;;;;5058121;28;20179;-74
2022/05/01 08:04:27;;;;;;;9.57;6.63;;;12.30;1.00;;;;;;5056809;28;20554;-74
2022/05/01 08:05:23;;;;;;;8.23;5.70;;;12.40;1.00;;;;;;5057484;28;20219;-75
2022/05/01 08:07:52;;;;;;;11.30;6.70;;;12.50;1.00;;;;;;5055780;28;20224;-74
2022/05/01 08:10:19;;;;;;;7.73;6.10;;;12.60;99.90;;;;;;5057033;28;20224;-74
2022/05/01 08:12:44;;;;;;;7.47;6.33;;;12.60;1.00;;;;;;5057333;28;20160;-74
2022/05/01 08:15:10;;;;;;;11.07;6.30;;;12.60;1.00;;;;;;5057645;28;20206;-74
2022/05/01 08:17:35;;;;;;;9.60;6.67;;;12.70;1.00;;;;;;5057629;28;20164;-74
2022/05/01 08:22:45;;;;;;;9.40;7.07;;;13.00;99.90;;;;;;5058359;28;20159;-74
2022/05/01 08:25:11;;;;;;;9.40;6.30;;;13.10;1.00;;;;;;5055721;28;20192;-75
2022/05/01 08:27:39;;;;;;;8.43;5.77;;;13.00;99.90;;;;;;5057708;28;20180;-73
2022/05/01 08:30:05;;;;;;;7.83;6.60;;;13.10;99.90;;;;;;5056844;28;20684;-74
2022/05/01 08:32:31;;;;;;;11.40;6.20;;;13.10;99.90;;;;;;5054429;28;20601;-74
2022/05/01 08:34:57;;;;;;;9.30;6.40;;;13.10;99.90;;;;;;5055906;28;20183;-74
2022/05/01 08:37:23;;;;;;;10.43;6.47;;;13.20;99.90;;;;;;5056506;28;20171;-74
2022/05/01 08:39:48;;;;;;;9.50;6.40;;;13.20;99.90;;;;;;5054062;28;20555;-74
2022/05/01 08:42:14;;;;;;;8.37;6.70;;;13.30;99.90;;;;;;5055475;28;20172;-74
2022/05/01 08:44:39;;;;;;;8.70;5.73;;;13.30;99.90;;;;;;5055778;28;20259;-74
2022/05/01 08:47:27;;;;;;;10.17;6.47;;;13.30;1.00;;;;;;5056010;28;20203;-74
2022/05/01 08:49:57;;;;;;;9.97;6.57;;;13.30;22.70;;;;;;5055716;28;20567;-74
2022/05/01 08:52:25;;;;;;;11.30;6.37;;;13.40;99.90;;;;;;5056142;28;20525;-74
2022/05/01 08:54:52;;;;;;;9.27;5.93;;;13.40;1.00;;;;;;5059461;28;20202;-74
2022/05/01 08:57:23;;;;;;;10.20;5.93;;;13.40;1.00;;;;;;5059453;28;20645;-74
2022/05/01 08:59:55;;;;;;;8.90;6.23;;;13.40;1.00;;;;;;5059740;28;20203;-74
2022/05/01 09:02:21;;;;;;;7.93;6.20;;;13.40;99.90;;;;;;5058502;28;20189;-74
2022/05/01 09:04:46;;;;;;;8.23;6.20;;;13.50;99.90;;;;;;5058272;28;20183;-74
2022/05/01 09:07:12;;;;;;;7.13;5.10;;;13.50;99.90;;;;;;5058198;28;20211;-74
2022/05/01 09:09:38;;;;;;;7.70;5.17;;;13.50;99.90;;;;;;5058961;28;20203;-74
2022/05/01 09:14:50;;;;;;;9.10;5.83;;;13.50;99.90;;;;;;5060106;28;20294;-74
2022/05/01 09:17:21;;;;;;;7.70;6.00;;;13.40;99.90;;;;;;5058453;28;20650;-75
2022/05/01 09:20:03;;;;;;;8.60;6.03;;;13.40;99.90;;;;;;5059492;28;20179;-74
2022/05/01 09:22:50;;;;;;;7.80;6.40;;;13.40;99.90;;;;;;5059772;28;20168;-75
2022/05/01 09:25:18;;;;;;;8.27;6.13;;;13.40;1.00;;;;;;5060442;28;20253;-74
2022/05/01 09:27:43;;;;;;;7.90;6.63;;;13.40;99.90;;;;;;5059336;28;20660;-74
2022/05/01 09:30:15;;;;;;;9.57;6.80;;;13.40;99.90;;;;;;5058500;28;20176;-74
2022/05/01 09:32:42;;;;;;;8.60;7.17;;;13.40;99.90;;;;;;5059739;28;20179;-74
2022/05/01 09:35:12;;;;;;;9.30;6.83;;;13.40;1.00;;;;;;5059267;28;20187;-75
2022/05/01 09:37:38;;;;;;;7.87;6.40;;;13.40;99.90;;;;;;5060671;28;20160;-75
2022/05/01 09:40:04;;;;;;;12.13;7.20;;;13.30;99.90;;;;;;5060134;28;20211;-75
2022/05/01 09:42:35;;;;;;;7.70;5.87;;;13.30;99.90;;;;;;5058820;28;20709;-75
2022/05/01 09:45:12;;;;;;;9.00;6.13;;;13.30;1.00;;;;;;5059537;28;20196;-74
2022/05/01 09:47:43;;;;;;;8.53;6.30;;;13.30;11.00;;;;;;5058342;28;20241;-75
2022/05/01 09:50:11;;;;;;;7.73;6.23;;;13.40;99.90;;;;;;5057707;28;20626;-74
2022/05/01 09:52:59;;;;;;;8.53;6.30;;;13.50;99.90;;;;;;5058199;28;20555;-74
2022/05/01 09:55:26;;;;;;;9.33;6.40;;;13.50;99.90;;;;;;5058881;28;20649;-74
2022/05/01 09:58:08;;;;;;;9.73;6.90;;;13.50;99.90;;;;;;5058854;28;20230;-75
2022/05/01 10:00:36;;;;;;;8.43;6.50;;;13.50;1.00;;;;;;5059080;28;20175;-74
2022/05/01 10:03:23;;;;;;;8.67;6.43;;;13.40;1.00;;;;;;5058319;28;20182;-75
2022/05/01 10:05:51;;;;;;;7.60;6.80;;;13.50;1.00;;;;;;5057797;28;20227;-74
2022/05/01 10:08:18;;;;;;;7.73;6.67;;;13.50;99.90;;;;;;5058629;28;20178;-74
2022/05/01 10:10:46;;;;;;;10.00;7.00;;;13.50;99.90;;;;;;5058945;28;20184;-74
2022/05/01 10:13:13;;;;;;;8.50;6.30;;;13.60;99.90;;;;;;5057029;28;20179;-74
2022/05/01 10:15:39;;;;;;;10.10;6.50;;;13.60;1.00;;;;;;5057275;28;20214;-74
2022/05/01 10:18:05;;;;;;;7.87;6.33;;;13.70;68.10;;;;;;5057480;28;20171;-74
2022/05/01 10:20:33;;;;;;;10.13;6.60;;;13.70;99.90;;;;;;5058167;28;20657;-74
2022/05/01 10:22:59;;;;;;;9.70;7.03;;;13.80;1.00;;;;;;5057737;28;20179;-74
2022/05/01 10:25:25;;;;;;;7.97;6.23;;;13.70;99.90;;;;;;5057755;28;20580;-76
2022/05/01 10:28:08;;;;;;;9.17;6.57;;;13.80;1.00;;;;;;5058379;28;20182;-74
2022/05/01 10:33:31;;;;;;;8.30;6.23;;;14.10;99.90;;;;;;5059750;28;20162;-74
2022/05/01 10:36:39;;;;;;;9.30;6.53;;;14.20;99.90;;;;;;5062389;28;20195;-75
2022/05/01 10:39:17;;;;;;;7.57;6.50;;;14.30;99.90;;;;;;5060157;28;20186;-74
2022/05/01 10:41:45;;;;;;;7.10;6.40;;;14.40;99.90;;;;;;5058206;28;20178;-73
2022/05/01 10:44:30;;;;;;;9.17;6.70;;;14.50;99.90;;;;;;5059754;28;20191;-76
2022/05/01 10:47:05;;;;;;;9.50;6.77;;;14.60;99.90;;;;;;5058411;28;20278;-75
2022/05/01 10:49:36;;;;;;;10.37;7.17;;;14.60;1.00;;;;;;5056997;28;20170;-75
2022/05/01 10:52:19;;;;;;;9.43;7.30;;;14.60;1.00;;;;;;5058664;28;20190;-76
2022/05/01 10:55:04;;;;;;;9.93;7.37;;;14.50;1.00;;;;;;5057829;28;20179;-74
2022/05/01 10:57:31;;;;;;;7.57;6.60;;;14.50;1.00;;;;;;5059050;28;20167;-74
2022/05/01 11:00:07;;;;;;;8.63;7.53;;;14.50;99.90;;;;;;5059360;28;20174;-75
2022/05/01 11:02:39;;;;;;;8.47;6.60;;;14.50;99.90;;;;;;5060420;28;20239;-74
2022/05/01 11:05:07;;;;;;;8.47;7.20;;;14.60;99.90;;;;;;5058137;28;20249;-76
2022/05/01 11:07:39;;;;;;;8.33;6.57;;;14.70;1.00;;;;;;5057473;28;20237;-75
2022/05/01 11:10:06;;;;;;;8.40;6.23;;;14.60;1.00;;;;;;5059910;28;20162;-74
2022/05/01 11:12:34;;;;;;;7.70;6.37;;;14.80;1.00;;;;;;5059111;28;20177;-76
2022/05/01 11:15:09;;;;;;;7.80;6.13;;;15.00;99.90;;;;;;5059737;28;20692;-77
2022/05/01 11:17:40;;;;;;;7.33;6.10;;;15.10;99.90;;;;;;5084435;22;20291;-77
2022/05/01 11:20:23;;;;;;;5.87;5.00;;;15.10;1.00;;;;;;5040461;28;20581;-78
2022/05/01 11:22:49;;;;;;;8.70;5.80;;;15.30;1.00;;;;;;5057740;28;20156;-79
2022/05/01 11:25:34;;;;;;;11.23;6.07;;;15.40;1.00;;;;;;5039688;28;20172;-78
2022/05/01 11:27:59;;;;;;;6.97;5.73;;;15.20;99.90;;;;;;5057611;28;20192;-78
2022/05/01 11:30:29;;;;;;;11.67;7.13;;;15.20;99.90;;;;;;5058303;28;20202;-77
2022/05/01 11:33:11;;;;;;;7.37;5.87;;;15.10;99.90;;;;;;5040610;28;20650;-79
2022/05/01 11:36:15;;;;;;;8.53;6.70;;;15.20;99.90;;;;;;5058294;28;20160;-78
2022/05/01 11:38:44;;;;;;;8.53;6.17;;;15.00;99.90;;;;;;4957120;29;20179;-77
2022/05/01 11:41:11;;;;;;;7.60;6.07;;;14.90;99.90;;;;;;4957430;29;20179;-78
2022/05/01 11:43:36;;;;;;;8.60;7.10;;;14.90;99.90;;;;;;4999583;28;20210;-78
2022/05/01 11:46:03;;;;;;;8.67;6.60;;;14.90;99.90;;;;;;5056749;28;20188;-79
2022/05/01 11:48:29;;;;;;;8.13;6.43;;;15.00;99.90;;;;;;5056839;28;20258;-78
2022/05/01 11:50:58;;;;;;;7.50;6.67;;;14.90;99.90;;;;;;5056619;28;20172;-78
2022/05/01 11:53:26;;;;;;;9.03;6.67;;;15.00;99.90;;;;;;5039912;28;20180;-78
2022/05/01 12:04:35;;;;;;;7.37;5.83;;;15.50;1.00;;;;;;5057790;28;20167;-78
2022/05/01 12:07:12;;;;;;;7.97;6.63;;;15.60;1.00;;;;;;5056271;28;20229;-77
2022/05/01 12:09:39;;;;;;;6.83;6.13;;;15.50;99.90;;;;;;5057233;28;20518;-79
2022/05/01 12:12:06;;;;;;;10.00;7.40;;;15.70;1.00;;;;;;5039185;28;20183;-78
2022/05/01 12:14:33;;;;;;;8.33;6.90;;;15.80;99.90;;;;;;5056990;28;20176;-79
2022/05/01 12:16:58;;;;;;;9.07;7.07;;;15.70;99.90;;;;;;5037745;28;20265;-78
2022/05/01 12:19:38;;;;;;;11.40;7.43;;;15.50;99.90;;;;;;5056980;28;20631;-77
2022/05/01 12:22:05;;;;;;;8.77;6.33;;;15.70;99.90;;;;;;5040134;28;20186;-78
2022/05/01 12:24:32;;;;;;;11.10;7.07;;;15.90;99.90;;;;;;5039122;28;20258;-76
2022/05/01 12:26:58;;;;;;;7.90;6.70;;;16.10;99.90;;;;;;5038019;28;20622;-78
2022/05/01 12:29:24;;;;;;;9.57;7.10;;;16.10;99.90;;;;;;5060465;28;20176;-78
2022/05/01 12:32:11;;;;;;;9.23;7.83;;;16.10;99.90;;;;;;5060400;28;20175;-77
2022/05/01 12:34:58;;;;;;;9.20;6.97;;;15.90;66.50;;;;;;5040552;28;20225;-78
2022/05/01 12:37:27;;;;;;;7.57;6.87;;;15.90;45.80;;;;;;5058564;28;20195;-78
2022/05/01 12:39:59;;;;;;;7.30;6.50;;;15.90;64.80;;;;;;5058615;28;20168;-78
2022/05/01 12:45:20;;;;;;;8.80;7.73;;;16.00;99.90;;;;;;5057641;28;20170;-77
2022/05/01 12:47:48;;;;;;;8.63;7.33;;;16.00;99.90;;;;;;5056869;28;20623;-77
2022/05/01 12:50:20;;;;;;;11.67;7.30;;;16.10;99.90;;;;;;5040229;28;20557;-77
2022/05/01 12:52:47;;;;;;;7.70;6.77;;;16.20;99.90;;;;;;5041676;28;20266;-76
2022/05/01 12:55:21;;;;;;;8.27;6.20;;;16.30;99.90;;;;;;5059943;28;20168;-78
2022/05/01 12:57:50;;;;;;;7.70;6.33;;;16.60;99.90;;;;;;5041742;28;20217;-77
2022/05/01 13:00:36;;;;;;;9.40;7.00;;;16.70;99.90;;;;;;5043184;28;20163;-78
2022/05/01 13:03:28;;;;;;;8.40;6.47;;;16.80;99.90;;;;;;5059828;28;20691;-76
2022/05/01 13:06:15;;;;;;;8.83;7.70;;;16.60;29.60;;;;;;5058510;28;20292;-76
2022/05/01 13:09:09;;;;;;;8.77;7.73;;;16.60;1.00;;;;;;5039989;28;20167;-76
2022/05/01 13:11:36;;;;;;;10.03;8.23;;;16.40;1.00;;;;;;5054112;28;20187;-77
2022/05/01 13:14:07;;;;;;;9.57;7.43;;;16.40;1.00;;;;;;5040496;28;20715;-77
2022/05/01 13:16:33;;;;;;;12.07;8.60;;;16.40;7.50;;;;;;5059299;28;20253;-75
2022/05/01 13:19:10;;;;;;;9.67;8.67;;;16.30;1.00;;;;;;5040524;28;20168;-77
2022/05/01 13:21:47;;;;;;;8.93;8.03;;;16.10;1.00;;;;;;5057449;28;20257;-77
2022/05/01 13:24:20;;;;;;;10.27;8.83;;;15.90;1.00;;;;;;5058303;28;20522;-77
2022/05/01 13:26:46;;;;;;;13.70;9.03;;;16.00;28.10;;;;;;5058236;28;20242;-76
2022/05/01 13:29:13;;;;;;;9.83;8.83;;;16.20;99.90;;;;;;5040912;28;20168;-78
2022/05/01 13:31:40;;;;;;;12.43;8.43;;;16.00;1.00;;;;;;5057338;28;20277;-77